AUA492 LPPR-LOWW
Flight info
| Callsign | AUA492 |
|---|---|
| Flight time | N/A |
| Altitude | 36000 |
| Route | BELDU DCT ADORO DCT FITSE DCT DGO DCT LPA DCT GOSVI T429 TOPTU DCT TOU DCT GAI/N0451F300 DCT MEN DCT NINUN/N0452F360 DCT LATAM DCT ETREK DCT LTP DCT SOPLO DCT OMASI DCT KINNI DCT SOSAL DCT KORED DCT BERSU DCT DITON DCT DEGES DCT GAMSA/N0445F370 DCT BIRGI/N0444F350 DCT NEMAL NEMAL2W |
| Aircraft | A320/M-SDE3FGHIRWY/LB1 |
Departure
| Time | 2026-05-05 09:59 |
|---|---|
| Airport | Francisco de Sá Carneiro Airport (LPPR) |
Arrival
| Time | N/A |
|---|---|
| Airport | Vienna International Airport (LOWW) |
| Time | Latitude | Longitude | Altitude | Speed | Heading |
|---|---|---|---|---|---|
| 2026-05-05 09:29 | 41.23734 | -8.67265 | 245 ft | 0 kts | 69° |
| 2026-05-05 09:51 | 41.23727 | -8.67288 | 245 ft | 4 kts | 71° |
| 2026-05-05 09:51 | 41.23719 | -8.67322 | 243 ft | 4 kts | 77° |
| 2026-05-05 09:51 | 41.23715 | -8.67357 | 242 ft | 4 kts | 90° |
| 2026-05-05 09:52 | 41.23719 | -8.67391 | 241 ft | 3 kts | 123° |
| 2026-05-05 09:52 | 41.23724 | -8.67400 | 240 ft | 0 kts | 127° |
| 2026-05-05 09:56 | 41.23712 | -8.67386 | 240 ft | 5 kts | 153° |
| 2026-05-05 09:56 | 41.23673 | -8.67401 | 239 ft | 7 kts | 211° |
| 2026-05-05 09:56 | 41.23636 | -8.67460 | 237 ft | 10 kts | 251° |
| 2026-05-05 09:56 | 41.23622 | -8.67550 | 233 ft | 8 kts | 259° |
| 2026-05-05 09:57 | 41.23612 | -8.67610 | 233 ft | 5 kts | 258° |
| 2026-05-05 09:57 | 41.23606 | -8.67651 | 233 ft | 4 kts | 259° |
| 2026-05-05 09:57 | 41.23605 | -8.67661 | 233 ft | 0 kts | 259° |
| 2026-05-05 09:58 | 41.23604 | -8.67665 | 233 ft | 3 kts | 259° |
| 2026-05-05 09:58 | 41.23595 | -8.67729 | 233 ft | 11 kts | 259° |
| 2026-05-05 09:58 | 41.23599 | -8.67805 | 233 ft | 7 kts | 310° |
| 2026-05-05 09:58 | 41.23644 | -8.67820 | 231 ft | 10 kts | 350° |
| 2026-05-05 09:59 | 41.23892 | -8.67884 | 223 ft | 71 kts | 349° |
| 2026-05-05 09:59 | 41.24588 | -8.68069 | 210 ft | 130 kts | 349° |
| 2026-05-05 09:59 | 41.25636 | -8.68348 | 248 ft | 169 kts | 349° |
| 2026-05-05 09:59 | 41.26740 | -8.68642 | 996 ft | 162 kts | 349° |
| 2026-05-05 10:00 | 41.27864 | -8.68934 | 1608 ft | 167 kts | 348° |
| 2026-05-05 10:00 | 41.29070 | -8.69253 | 1946 ft | 187 kts | 347° |
| 2026-05-05 10:00 | 41.30409 | -8.69605 | 2270 ft | 206 kts | 347° |
| 2026-05-05 10:00 | 41.31911 | -8.69992 | 2566 ft | 233 kts | 348° |
| 2026-05-05 10:01 | 41.33572 | -8.70412 | 3112 ft | 250 kts | 348° |
| 2026-05-05 10:01 | 41.35303 | -8.70853 | 3921 ft | 255 kts | 348° |
| 2026-05-05 10:01 | 41.37057 | -8.71313 | 4821 ft | 258 kts | 347° |
| 2026-05-05 10:01 | 41.38820 | -8.71781 | 5696 ft | 260 kts | 348° |
| 2026-05-05 10:02 | 41.40625 | -8.71749 | 6610 ft | 263 kts | 13° |
| 2026-05-05 10:02 | 41.42231 | -8.70552 | 7390 ft | 275 kts | 44° |
| 2026-05-05 10:02 | 41.43150 | -8.68316 | 8157 ft | 286 kts | 73° |
| 2026-05-05 10:02 | 41.43547 | -8.65698 | 8972 ft | 291 kts | 76° |
| 2026-05-05 10:03 | 41.43910 | -8.63028 | 9754 ft | 294 kts | 76° |
| 2026-05-05 10:03 | 41.44266 | -8.60328 | 10467 ft | 300 kts | 78° |
| 2026-05-05 10:03 | 41.44279 | -8.57414 | 10668 ft | 328 kts | 94° |
| 2026-05-05 10:03 | 41.43926 | -8.54298 | 10882 ft | 351 kts | 96° |
| 2026-05-05 10:04 | 41.43532 | -8.50998 | 11176 ft | 368 kts | 96° |
| 2026-05-05 10:04 | 41.43149 | -8.47594 | 11743 ft | 375 kts | 95° |
| 2026-05-05 10:04 | 41.42784 | -8.44129 | 12415 ft | 379 kts | 95° |
| 2026-05-05 10:04 | 41.42427 | -8.40624 | 13061 ft | 383 kts | 95° |
| 2026-05-05 10:05 | 41.42073 | -8.37078 | 13733 ft | 388 kts | 95° |
| 2026-05-05 10:05 | 41.41702 | -8.33492 | 14351 ft | 392 kts | 95° |
| 2026-05-05 10:05 | 41.41331 | -8.29874 | 14917 ft | 396 kts | 95° |
| 2026-05-05 10:05 | 41.40961 | -8.26251 | 15491 ft | 400 kts | 95° |
| 2026-05-05 10:06 | 41.40580 | -8.22566 | 16056 ft | 404 kts | 95° |
| 2026-05-05 10:06 | 41.40200 | -8.18849 | 16623 ft | 407 kts | 95° |
| 2026-05-05 10:06 | 41.39814 | -8.15097 | 17191 ft | 411 kts | 95° |
| 2026-05-05 10:06 | 41.39418 | -8.11301 | 17733 ft | 415 kts | 95° |
| 2026-05-05 10:07 | 41.39015 | -8.07481 | 18270 ft | 418 kts | 95° |
| 2026-05-05 10:07 | 41.38610 | -8.03623 | 18727 ft | 421 kts | 95° |
| 2026-05-05 10:07 | 41.38211 | -7.99791 | 19177 ft | 425 kts | 95° |
| 2026-05-05 10:07 | 41.37794 | -7.95831 | 19645 ft | 428 kts | 95° |
| 2026-05-05 10:08 | 41.37377 | -7.91888 | 20100 ft | 431 kts | 95° |
| 2026-05-05 10:08 | 41.36957 | -7.87924 | 20543 ft | 434 kts | 95° |
| 2026-05-05 10:08 | 41.36678 | -7.85284 | 20824 ft | 436 kts | 95° |
| 2026-05-05 10:08 | 41.36123 | -7.79964 | 21410 ft | 439 kts | 92° |
| 2026-05-05 10:09 | 41.36021 | -7.77224 | 21699 ft | 438 kts | 85° |
| 2026-05-05 10:09 | 41.36240 | -7.73186 | 22153 ft | 438 kts | 79° |
| 2026-05-05 10:09 | 41.36744 | -7.67841 | 22706 ft | 442 kts | 78° |
| 2026-05-05 10:09 | 41.36994 | -7.65092 | 22996 ft | 444 kts | 79° |
| 2026-05-05 10:10 | 41.37349 | -7.60995 | 23400 ft | 447 kts | 79° |
| 2026-05-05 10:10 | 41.37706 | -7.56864 | 23820 ft | 449 kts | 79° |
| 2026-05-05 10:10 | 41.38073 | -7.52729 | 24180 ft | 451 kts | 79° |
| 2026-05-05 10:10 | 41.38434 | -7.48576 | 24519 ft | 454 kts | 79° |
| 2026-05-05 10:11 | 41.38804 | -7.44385 | 24839 ft | 457 kts | 79° |
| 2026-05-05 10:11 | 41.39171 | -7.40170 | 25165 ft | 460 kts | 79° |
| 2026-05-05 10:11 | 41.39536 | -7.35966 | 25481 ft | 463 kts | 79° |
| 2026-05-05 10:11 | 41.39901 | -7.31695 | 25789 ft | 466 kts | 80° |
| 2026-05-05 10:12 | 41.40268 | -7.27397 | 26104 ft | 468 kts | 80° |
| 2026-05-05 10:12 | 41.40637 | -7.23075 | 26404 ft | 471 kts | 80° |
| 2026-05-05 10:12 | 41.41005 | -7.18717 | 26708 ft | 474 kts | 81° |
| 2026-05-05 10:12 | 41.41377 | -7.14342 | 26981 ft | 477 kts | 81° |
| 2026-05-05 10:13 | 41.41742 | -7.09932 | 27265 ft | 480 kts | 81° |
| 2026-05-05 10:13 | 41.42109 | -7.05497 | 27553 ft | 483 kts | 81° |
| 2026-05-05 10:13 | 41.42485 | -7.01033 | 27825 ft | 485 kts | 81° |
| 2026-05-05 10:13 | 41.42857 | -6.96553 | 28096 ft | 488 kts | 81° |
| 2026-05-05 10:14 | 41.43224 | -6.92054 | 28366 ft | 490 kts | 81° |
| 2026-05-05 10:14 | 41.43599 | -6.87531 | 28666 ft | 491 kts | 81° |
| 2026-05-05 10:14 | 41.43971 | -6.83011 | 29064 ft | 491 kts | 82° |
| 2026-05-05 10:14 | 41.44340 | -6.78480 | 29442 ft | 491 kts | 82° |
| 2026-05-05 10:15 | 41.44705 | -6.73952 | 29815 ft | 491 kts | 82° |
| 2026-05-05 10:15 | 41.45067 | -6.69423 | 30174 ft | 492 kts | 82° |
| 2026-05-05 10:15 | 41.45426 | -6.64892 | 30476 ft | 492 kts | 82° |
| 2026-05-05 10:15 | 41.45784 | -6.60351 | 30794 ft | 491 kts | 82° |
| 2026-05-05 10:16 | 41.46138 | -6.55884 | 31082 ft | 492 kts | 82° |
| 2026-05-05 10:16 | 41.46497 | -6.51353 | 31361 ft | 492 kts | 82° |
| 2026-05-05 10:16 | 41.46845 | -6.46814 | 31673 ft | 492 kts | 82° |
| 2026-05-05 10:16 | 41.47201 | -6.42284 | 31967 ft | 492 kts | 83° |
| 2026-05-05 10:17 | 41.47556 | -6.37728 | 32235 ft | 493 kts | 83° |
| 2026-05-05 10:17 | 41.47906 | -6.33183 | 32523 ft | 493 kts | 83° |
| 2026-05-05 10:17 | 41.48399 | -6.28658 | 32806 ft | 492 kts | 75° |
| 2026-05-05 10:17 | 41.49392 | -6.24307 | 33083 ft | 490 kts | 66° |
| 2026-05-05 10:18 | 41.50685 | -6.20103 | 33389 ft | 489 kts | 65° |
| 2026-05-05 10:18 | 41.51981 | -6.15904 | 33675 ft | 490 kts | 65° |
| 2026-05-05 10:18 | 41.53263 | -6.11690 | 33947 ft | 490 kts | 65° |
| 2026-05-05 10:18 | 41.54536 | -6.07470 | 34026 ft | 491 kts | 66° |
| 2026-05-05 10:19 | 41.57096 | -5.98979 | 34026 ft | 493 kts | 66° |
| 2026-05-05 10:19 | 41.59646 | -5.90525 | 34024 ft | 494 kts | 66° |
| 2026-05-05 10:20 | 41.62197 | -5.82010 | 34024 ft | 494 kts | 66° |
| 2026-05-05 10:20 | 41.64742 | -5.73494 | 34011 ft | 492 kts | 66° |
| 2026-05-05 10:21 | 41.67276 | -5.64999 | 34017 ft | 492 kts | 66° |
| 2026-05-05 10:21 | 41.69801 | -5.56466 | 34018 ft | 492 kts | 67° |
| 2026-05-05 10:22 | 41.72330 | -5.47956 | 34018 ft | 492 kts | 66° |
| 2026-05-05 10:22 | 41.74842 | -5.39433 | 34018 ft | 492 kts | 67° |
| 2026-05-05 10:23 | 41.77359 | -5.30899 | 34009 ft | 493 kts | 67° |
| 2026-05-05 10:23 | 41.79863 | -5.22338 | 34017 ft | 494 kts | 67° |
| 2026-05-05 10:24 | 41.82360 | -5.13810 | 34020 ft | 494 kts | 67° |
| 2026-05-05 10:24 | 41.84863 | -5.05216 | 34022 ft | 494 kts | 67° |
| 2026-05-05 10:25 | 41.87343 | -4.96617 | 34023 ft | 494 kts | 67° |
| 2026-05-05 10:25 | 41.89835 | -4.88016 | 34014 ft | 495 kts | 68° |
| 2026-05-05 10:26 | 41.92325 | -4.79412 | 34019 ft | 495 kts | 68° |
| 2026-05-05 10:26 | 41.94796 | -4.70789 | 34019 ft | 495 kts | 68° |
| 2026-05-05 10:27 | 41.97252 | -4.62217 | 34010 ft | 495 kts | 68° |
| 2026-05-05 10:27 | 41.99713 | -4.53583 | 34018 ft | 496 kts | 68° |
| 2026-05-05 10:28 | 42.02186 | -4.44900 | 34371 ft | 497 kts | 69° |
| 2026-05-05 10:28 | 42.03409 | -4.40561 | 34630 ft | 496 kts | 69° |
| 2026-05-05 10:28 | 42.04638 | -4.36224 | 34895 ft | 496 kts | 68° |
| 2026-05-05 10:29 | 42.05869 | -4.31884 | 35165 ft | 495 kts | 68° |
| 2026-05-05 10:29 | 42.07093 | -4.27553 | 35424 ft | 495 kts | 69° |